Time;durP1;ratioP1;P1;durP2;ratioP2;P2;SDS_P1;SDS_P2;PMS_P1;PMS_P2;Temp;Humidity;BMP_temperature;BMP_pressure;BME280_temperature;BME280_humidity;BME280_pressure;Samples;Min_cycle;Max_cycle;Signal;HPM_P1;HPM_P2
2022/02/19 00:00:35;;;;;;;0.30;0.10;;;;;;;;;;4130913;28;20073;-60
2022/02/19 00:02:36;;;;;;;0.20;0.10;;;;;;;;;;4131593;28;20132;-60
2022/02/19 00:04:38;;;;;;;0.30;0.20;;;;;;;;;;4132493;28;20101;-60
2022/02/19 00:06:39;;;;;;;0.38;0.10;;;;;;;;;;4132136;28;20062;-60
2022/02/19 00:08:40;;;;;;;0.50;0.10;;;;;;;;;;4130512;28;20441;-60
2022/02/19 00:10:42;;;;;;;0.13;0.10;;;;;;;;;;4114735;28;20065;-60
2022/02/19 00:12:43;;;;;;;0.25;0.10;;;;;;;;;;4131799;28;20583;-58
2022/02/19 00:14:44;;;;;;;0.65;0.22;;;;;;;;;;4130596;28;20124;-60
2022/02/19 00:16:46;;;;;;;0.85;0.20;;;;;;;;;;4130370;28;20112;-60
2022/02/19 00:18:47;;;;;;;0.38;0.10;;;;;;;;;;4131824;28;20042;-59
2022/02/19 00:20:48;;;;;;;0.93;0.10;;;;;;;;;;4132358;28;20077;-61
2022/02/19 00:22:50;;;;;;;0.20;0.13;;;;;;;;;;4131705;28;20054;-60
2022/02/19 00:24:52;;;;;;;0.10;0.10;;;;;;;;;;4130825;28;20054;-60
2022/02/19 00:26:54;;;;;;;0.43;0.10;;;;;;;;;;4131373;28;20095;-61
2022/02/19 00:28:55;;;;;;;0.10;0.10;;;;;;;;;;4114322;28;20061;-59
2022/02/19 00:30:57;;;;;;;0.10;0.10;;;;;;;;;;4130371;28;20128;-58
2022/02/19 00:32:58;;;;;;;0.15;0.03;;;;;;;;;;4131195;28;20113;-58
2022/02/19 00:35:03;;;;;;;0.10;0.10;;;;;;;;;;4115444;28;20058;-60
2022/02/19 00:37:04;;;;;;;0.30;0.20;;;;;;;;;;4131570;28;20062;-60
2022/02/19 00:39:05;;;;;;;0.20;0.10;;;;;;;;;;4145143;28;20139;-60
2022/02/19 00:41:08;;;;;;;1.08;0.10;;;;;;;;;;4131800;28;20153;-55
2022/02/19 00:43:09;;;;;;;0.50;0.20;;;;;;;;;;4131326;28;20077;-61
2022/02/19 00:45:11;;;;;;;0.50;0.10;;;;;;;;;;4131439;28;20072;-57
2022/02/19 00:47:12;;;;;;;0.25;0.10;;;;;;;;;;4130913;28;20106;-58
2022/02/19 00:49:14;;;;;;;0.68;0.20;;;;;;;;;;4131449;28;20046;-59
2022/02/19 00:51:16;;;;;;;0.10;0.10;;;;;;;;;;4130173;28;20082;-60
2022/02/19 00:53:17;;;;;;;0.20;0.10;;;;;;;;;;4131332;28;20074;-59
2022/02/19 00:55:18;;;;;;;0.17;0.10;;;;;;;;;;4131633;28;20149;-59
2022/02/19 00:57:20;;;;;;;0.47;0.10;;;;;;;;;;4129914;28;20072;-60
2022/02/19 00:59:21;;;;;;;0.55;0.20;;;;;;;;;;4130098;28;20174;-60
2022/02/19 01:01:23;;;;;;;0.40;0.10;;;;;;;;;;4131243;28;20084;-59
2022/02/19 01:03:34;;;;;;;0.20;0.10;;;;;;;;;;4129759;28;20109;-60
2022/02/19 01:05:35;;;;;;;0.40;0.10;;;;;;;;;;4130074;28;20061;-60
2022/02/19 01:07:37;;;;;;;0.28;0.10;;;;;;;;;;4131081;28;20108;-59
2022/02/19 01:09:41;;;;;;;0.10;0.00;;;;;;;;;;4131174;28;20352;-57
2022/02/19 01:11:42;;;;;;;0.10;0.10;;;;;;;;;;4131398;28;20054;-61
2022/02/19 01:13:45;;;;;;;0.30;0.10;;;;;;;;;;4131050;28;20417;-65
2022/02/19 01:15:46;;;;;;;0.10;0.10;;;;;;;;;;4146274;28;20149;-60
2022/02/19 01:17:47;;;;;;;0.10;0.10;;;;;;;;;;4129189;28;20410;-61
2022/02/19 01:19:48;;;;;;;0.10;0.10;;;;;;;;;;4146130;28;20054;-58
2022/02/19 01:21:49;;;;;;;0.20;0.10;;;;;;;;;;4130948;28;20417;-60
2022/02/19 01:23:50;;;;;;;0.30;0.17;;;;;;;;;;4145822;28;20058;-59
2022/02/19 01:25:51;;;;;;;0.32;0.15;;;;;;;;;;4129612;28;20153;-60
2022/02/19 01:27:52;;;;;;;0.35;0.10;;;;;;;;;;4129442;28;20473;-60
2022/02/19 01:29:54;;;;;;;0.05;0.05;;;;;;;;;;4129776;28;20065;-59
2022/02/19 01:31:56;;;;;;;0.32;0.22;;;;;;;;;;4128946;28;20065;-60
2022/02/19 01:33:59;;;;;;;0.13;0.10;;;;;;;;;;4145927;28;20184;-59
2022/02/19 01:36:01;;;;;;;0.20;0.20;;;;;;;;;;4120228;28;20121;-60
2022/02/19 01:38:03;;;;;;;0.40;0.17;;;;;;;;;;4113084;28;20070;-60
2022/02/19 01:40:05;;;;;;;0.38;0.20;;;;;;;;;;4129239;28;20058;-60
2022/02/19 01:42:08;;;;;;;0.10;0.10;;;;;;;;;;4114731;28;20073;-60
2022/02/19 01:44:11;;;;;;;0.10;0.10;;;;;;;;;;4114657;28;20062;-60
2022/02/19 01:46:13;;;;;;;0.15;0.10;;;;;;;;;;4129515;28;20054;-60
2022/02/19 01:48:15;;;;;;;0.45;0.25;;;;;;;;;;4112965;28;20055;-60
2022/02/19 01:50:16;;;;;;;0.10;0.10;;;;;;;;;;4097077;28;20055;-60
2022/02/19 01:52:19;;;;;;;0.47;0.30;;;;;;;;;;4113108;28;20050;-60
2022/02/19 01:54:21;;;;;;;0.25;0.13;;;;;;;;;;4114300;28;20491;-60
2022/02/19 01:56:33;;;;;;;0.28;0.20;;;;;;;;;;4129314;28;20054;-61
2022/02/19 01:58:47;;;;;;;0.32;0.10;;;;;;;;;;4096900;29;20515;-57
2022/02/19 02:01:06;;;;;;;0.30;0.10;;;;;;;;;;4110834;28;20407;-60
2022/02/19 02:03:25;;;;;;;0.15;0.10;;;;;;;;;;4113815;28;20109;-60
2022/02/19 02:05:33;;;;;;;0.10;0.10;;;;;;;;;;4112798;28;20407;-59
2022/02/19 02:07:36;;;;;;;0.20;0.20;;;;;;;;;;4112503;28;20090;-60
2022/02/19 02:09:38;;;;;;;0.15;0.10;;;;;;;;;;4129191;28;20101;-60
2022/02/19 02:11:41;;;;;;;0.20;0.10;;;;;;;;;;4113010;28;20066;-60
2022/02/19 02:13:45;;;;;;;0.32;0.20;;;;;;;;;;4096750;29;20055;-60
2022/02/19 02:15:51;;;;;;;0.40;0.30;;;;;;;;;;4112847;28;20055;-60
2022/02/19 02:18:00;;;;;;;0.57;0.10;;;;;;;;;;4128189;28;20125;-59
2022/02/19 02:20:02;;;;;;;0.20;0.10;;;;;;;;;;4096903;29;20468;-60
2022/02/19 02:22:04;;;;;;;0.45;0.20;;;;;;;;;;4128773;28;20054;-60
2022/02/19 02:24:06;;;;;;;0.30;0.17;;;;;;;;;;4113994;28;20495;-59
2022/02/19 02:26:08;;;;;;;0.10;0.10;;;;;;;;;;4096732;29;20090;-60
2022/02/19 02:28:09;;;;;;;0.22;0.10;;;;;;;;;;4128996;28;20065;-60
2022/02/19 02:30:12;;;;;;;0.20;0.10;;;;;;;;;;4128717;28;20054;-59
2022/02/19 02:32:20;;;;;;;0.30;0.10;;;;;;;;;;4096314;29;20062;-59
2022/02/19 02:34:21;;;;;;;0.22;0.10;;;;;;;;;;4114204;28;20266;-60
2022/02/19 02:36:23;;;;;;;0.40;0.20;;;;;;;;;;4120878;28;20054;-60
2022/02/19 02:38:27;;;;;;;0.17;0.13;;;;;;;;;;4144477;28;20052;-60
2022/02/19 02:40:31;;;;;;;0.10;0.10;;;;;;;;;;4128668;28;20062;-60
2022/02/19 02:42:33;;;;;;;0.50;0.40;;;;;;;;;;4128516;28;20530;-60
2022/02/19 02:44:40;;;;;;;2.45;0.20;;;;;;;;;;4128647;28;20054;-59
2022/02/19 02:46:41;;;;;;;0.10;0.10;;;;;;;;;;4129455;28;20379;-59
2022/02/19 02:48:45;;;;;;;0.30;0.13;;;;;;;;;;4128372;28;20116;-60
2022/02/19 02:50:49;;;;;;;0.10;0.10;;;;;;;;;;4112672;28;20066;-57
2022/02/19 02:52:50;;;;;;;0.43;0.10;;;;;;;;;;4128449;28;20140;-60
2022/02/19 02:54:51;;;;;;;0.40;0.20;;;;;;;;;;4144651;28;20089;-60
2022/02/19 02:56:54;;;;;;;0.20;0.10;;;;;;;;;;4128198;28;20058;-60
2022/02/19 02:58:55;;;;;;;0.20;0.20;;;;;;;;;;4128371;28;20058;-59
2022/02/19 03:00:56;;;;;;;1.95;0.20;;;;;;;;;;4128541;28;20278;-60
2022/02/19 03:02:57;;;;;;;0.10;0.10;;;;;;;;;;4132428;28;20109;-60
2022/02/19 03:04:58;;;;;;;0.00;0.00;;;;;;;;;;4131780;28;20066;-59
2022/02/19 03:06:59;;;;;;;0.15;0.10;;;;;;;;;;4132984;28;20054;-59
2022/02/19 03:09:00;;;;;;;0.10;0.10;;;;;;;;;;4131740;28;20506;-60
2022/02/19 03:11:05;;;;;;;0.20;0.10;;;;;;;;;;4131745;28;20490;-58
2022/02/19 03:13:11;;;;;;;0.40;0.25;;;;;;;;;;4131507;28;20062;-60
2022/02/19 03:15:18;;;;;;;0.28;0.20;;;;;;;;;;4142014;28;20139;-60
2022/02/19 03:17:19;;;;;;;0.10;0.10;;;;;;;;;;4147400;28;20069;-60
2022/02/19 03:19:21;;;;;;;0.28;0.10;;;;;;;;;;4131470;28;20054;-60
2022/02/19 03:21:22;;;;;;;0.30;0.10;;;;;;;;;;4148996;28;20077;-59
2022/02/19 03:23:25;;;;;;;0.45;0.25;;;;;;;;;;4131544;28;20497;-60
2022/02/19 03:25:26;;;;;;;0.20;0.10;;;;;;;;;;4131277;28;20073;-60
2022/02/19 03:27:30;;;;;;;0.30;0.20;;;;;;;;;;4099888;28;20114;-61
2022/02/19 03:29:37;;;;;;;0.10;0.10;;;;;;;;;;4147713;28;20054;-59
2022/02/19 03:31:38;;;;;;;0.22;0.13;;;;;;;;;;4130693;28;20126;-58
2022/02/19 03:33:50;;;;;;;0.25;0.17;;;;;;;;;;4131273;28;20085;-60
2022/02/19 03:35:55;;;;;;;0.20;0.08;;;;;;;;;;4122830;28;20058;-60
2022/02/19 03:37:56;;;;;;;0.20;0.10;;;;;;;;;;4131355;28;20176;-60
2022/02/19 03:40:09;;;;;;;0.00;0.00;;;;;;;;;;4131202;28;20057;-60
2022/02/19 03:42:10;;;;;;;0.20;0.10;;;;;;;;;;4131018;28;20069;-60
2022/02/19 03:44:12;;;;;;;0.10;0.10;;;;;;;;;;4131267;28;20066;-59
2022/02/19 03:46:19;;;;;;;0.20;0.10;;;;;;;;;;4114929;28;20058;-59
2022/02/19 03:48:23;;;;;;;0.00;0.00;;;;;;;;;;4131859;28;20442;-58
2022/02/19 03:50:24;;;;;;;0.45;0.10;;;;;;;;;;4115080;28;20059;-59
2022/02/19 03:52:26;;;;;;;0.30;0.10;;;;;;;;;;4115004;28;20055;-60
2022/02/19 03:54:27;;;;;;;0.10;0.10;;;;;;;;;;4115049;28;20063;-59
2022/02/19 03:56:29;;;;;;;0.10;0.08;;;;;;;;;;4132326;28;20058;-60
2022/02/19 03:58:35;;;;;;;0.20;0.10;;;;;;;;;;4114758;28;20388;-60
2022/02/19 04:00:38;;;;;;;0.50;0.10;;;;;;;;;;4131137;28;20081;-59
2022/02/19 04:02:43;;;;;;;0.25;0.20;;;;;;;;;;4114558;28;20112;-60
2022/02/19 04:04:44;;;;;;;0.17;0.10;;;;;;;;;;4115210;28;20058;-59
2022/02/19 04:06:45;;;;;;;0.10;0.10;;;;;;;;;;4098941;28;20102;-58
2022/02/19 04:08:47;;;;;;;0.10;0.10;;;;;;;;;;4130716;28;20061;-60
2022/02/19 04:10:48;;;;;;;0.63;0.10;;;;;;;;;;4132040;28;20144;-60
2022/02/19 04:12:49;;;;;;;0.40;0.20;;;;;;;;;;4130424;28;20069;-60
2022/02/19 04:15:04;;;;;;;0.10;0.10;;;;;;;;;;4114723;28;20051;-60
2022/02/19 04:17:05;;;;;;;0.38;0.20;;;;;;;;;;4130204;28;20093;-59
2022/02/19 04:19:07;;;;;;;0.20;0.13;;;;;;;;;;4131788;28;20054;-59
2022/02/19 04:21:08;;;;;;;0.10;0.10;;;;;;;;;;4114493;28;20146;-58
2022/02/19 04:23:11;;;;;;;0.28;0.10;;;;;;;;;;4098912;28;20088;-60
2022/02/19 04:25:12;;;;;;;0.52;0.10;;;;;;;;;;4130607;28;20059;-60
2022/02/19 04:27:14;;;;;;;0.25;0.10;;;;;;;;;;4114076;28;20217;-59
2022/02/19 04:29:16;;;;;;;0.20;0.10;;;;;;;;;;4114379;28;20109;-59
2022/02/19 04:31:23;;;;;;;0.20;0.10;;;;;;;;;;4114626;28;20063;-59
2022/02/19 04:33:31;;;;;;;0.10;0.10;;;;;;;;;;4130234;28;20323;-59
2022/02/19 04:35:33;;;;;;;0.00;0.00;;;;;;;;;;4114528;28;20111;-59
2022/02/19 04:37:35;;;;;;;0.40;0.20;;;;;;;;;;4126394;28;20101;-60
2022/02/19 04:39:37;;;;;;;0.10;0.10;;;;;;;;;;4130439;28;20128;-60
2022/02/19 04:41:43;;;;;;;0.10;0.10;;;;;;;;;;4114187;28;20365;-60
2022/02/19 04:43:48;;;;;;;0.20;0.20;;;;;;;;;;4114179;28;20102;-60
2022/02/19 04:45:50;;;;;;;0.15;0.10;;;;;;;;;;4114171;28;20515;-60
2022/02/19 04:47:51;;;;;;;0.10;0.10;;;;;;;;;;4129723;28;20128;-58
2022/02/19 04:49:54;;;;;;;0.10;0.05;;;;;;;;;;4114502;28;20122;-59
2022/02/19 04:51:55;;;;;;;0.10;0.10;;;;;;;;;;4114078;28;20109;-60
2022/02/19 04:53:57;;;;;;;0.10;0.10;;;;;;;;;;4114086;28;20081;-60
2022/02/19 04:55:58;;;;;;;0.52;0.20;;;;;;;;;;4114020;28;20062;-57
2022/02/19 04:57:59;;;;;;;0.20;0.10;;;;;;;;;;4113682;28;20066;-58
2022/02/19 05:00:01;;;;;;;0.20;0.20;;;;;;;;;;4114072;28;20091;-58
2022/02/19 05:02:16;;;;;;;0.13;0.00;;;;;;;;;;4129823;28;20062;-60
2022/02/19 05:04:22;;;;;;;0.40;0.15;;;;;;;;;;4114370;28;20435;-59
2022/02/19 05:06:33;;;;;;;0.10;0.10;;;;;;;;;;4113829;28;20487;-60
2022/02/19 05:08:37;;;;;;;0.32;0.10;;;;;;;;;;4113811;28;20482;-60
2022/02/19 05:10:39;;;;;;;0.10;0.10;;;;;;;;;;4113851;28;20059;-60
2022/02/19 05:12:44;;;;;;;0.55;0.20;;;;;;;;;;4113925;28;20066;-58
2022/02/19 05:14:49;;;;;;;0.40;0.10;;;;;;;;;;4113863;28;20153;-60
2022/02/19 05:16:59;;;;;;;0.30;0.15;;;;;;;;;;4113356;28;20062;-60
2022/02/19 05:19:09;;;;;;;0.32;0.10;;;;;;;;;;4113974;28;20097;-57
2022/02/19 05:21:13;;;;;;;0.10;0.10;;;;;;;;;;4131062;28;20457;-60
2022/02/19 05:23:21;;;;;;;0.13;0.13;;;;;;;;;;4113665;28;20062;-60
2022/02/19 05:25:23;;;;;;;0.25;0.10;;;;;;;;;;4112859;28;20058;-61
2022/02/19 05:27:25;;;;;;;0.10;0.00;;;;;;;;;;4129386;28;20062;-60
2022/02/19 05:29:30;;;;;;;0.43;0.15;;;;;;;;;;4140603;28;20065;-60
2022/02/19 05:31:31;;;;;;;0.00;0.00;;;;;;;;;;4131156;28;20058;-60
2022/02/19 05:33:49;;;;;;;0.25;0.13;;;;;;;;;;4131094;28;20058;-60
2022/02/19 05:35:51;;;;;;;0.20;0.10;;;;;;;;;;4129532;28;20054;-60
2022/02/19 05:37:53;;;;;;;0.25;0.20;;;;;;;;;;4129342;28;20576;-60
2022/02/19 05:39:54;;;;;;;0.10;0.10;;;;;;;;;;4129581;28;20113;-60
2022/02/19 05:41:57;;;;;;;0.10;0.10;;;;;;;;;;4129589;28;20062;-57
2022/02/19 05:44:04;;;;;;;0.63;0.10;;;;;;;;;;4129603;28;20161;-60
2022/02/19 05:46:06;;;;;;;0.40;0.20;;;;;;;;;;4130854;28;20097;-59
2022/02/19 05:48:08;;;;;;;0.30;0.20;;;;;;;;;;4128774;28;20517;-57
2022/02/19 05:50:29;;;;;;;0.35;0.08;;;;;;;;;;4130537;28;20081;-60
2022/02/19 05:52:34;;;;;;;0.10;0.10;;;;;;;;;;4129371;28;20510;-58
2022/02/19 05:54:56;;;;;;;0.20;0.10;;;;;;;;;;4145635;28;20128;-60
2022/02/19 05:57:01;;;;;;;0.10;0.00;;;;;;;;;;4145255;28;20480;-60
2022/02/19 05:59:02;;;;;;;0.30;0.10;;;;;;;;;;4145530;28;20153;-60
2022/02/19 06:01:03;;;;;;;0.10;0.10;;;;;;;;;;4113188;28;20345;-60
2022/02/19 06:03:04;;;;;;;0.15;0.10;;;;;;;;;;4161467;28;20053;-59
2022/02/19 06:05:07;;;;;;;0.10;0.10;;;;;;;;;;4161707;28;20143;-60
2022/02/19 06:07:11;;;;;;;0.50;0.28;;;;;;;;;;4113290;28;20061;-59
2022/02/19 06:09:12;;;;;;;0.20;0.10;;;;;;;;;;4129069;28;20046;-59
2022/02/19 06:11:14;;;;;;;0.10;0.10;;;;;;;;;;4130652;28;20116;-58
2022/02/19 06:13:33;;;;;;;;;;;;;;;;;;4131172;28;20130;-58
2022/02/19 06:15:34;;;;;;;0.10;0.00;;;;;;;;;;4129026;28;20420;-60
2022/02/19 06:18:02;;;;;;;0.15;0.10;;;;;;;;;;4137151;28;20112;-58
2022/02/19 06:20:07;;;;;;;0.13;0.10;;;;;;;;;;4145196;28;20363;-60
2022/02/19 06:22:09;;;;;;;0.30;0.10;;;;;;;;;;4129159;28;20062;-60
2022/02/19 06:24:11;;;;;;;0.03;0.03;;;;;;;;;;4145565;28;20494;-60
2022/02/19 06:26:13;;;;;;;0.00;0.00;;;;;;;;;;4144859;28;20536;-60
2022/02/19 06:28:36;;;;;;;0.25;0.10;;;;;;;;;;4129134;28;20058;-57
2022/02/19 06:30:38;;;;;;;0.28;0.10;;;;;;;;;;4112818;28;20125;-61
2022/02/19 06:32:45;;;;;;;0.10;0.10;;;;;;;;;;4112509;28;20054;-60
2022/02/19 06:34:46;;;;;;;0.00;0.00;;;;;;;;;;4145219;28;20096;-58
2022/02/19 06:36:53;;;;;;;0.70;0.30;;;;;;;;;;4112465;28;20059;-60
2022/02/19 06:38:59;;;;;;;0.30;0.10;;;;;;;;;;4096696;29;20118;-60
2022/02/19 06:41:08;;;;;;;0.20;0.10;;;;;;;;;;4112639;28;20070;-61
2022/02/19 06:43:31;;;;;;;0.10;0.00;;;;;;;;;;4112937;28;20065;-58
2022/02/19 06:45:32;;;;;;;0.35;0.20;;;;;;;;;;4112711;28;20054;-60
2022/02/19 06:47:35;;;;;;;0.10;0.08;;;;;;;;;;4096202;28;20074;-60
2022/02/19 06:49:38;;;;;;;0.17;0.08;;;;;;;;;;4112549;28;20458;-59
2022/02/19 06:51:40;;;;;;;0.30;0.10;;;;;;;;;;4096784;29;20081;-59
2022/02/19 06:53:41;;;;;;;0.22;0.10;;;;;;;;;;4112841;28;20055;-65
2022/02/19 06:55:42;;;;;;;0.10;0.10;;;;;;;;;;4096823;29;20055;-59
2022/02/19 06:57:47;;;;;;;0.05;0.05;;;;;;;;;;4128120;28;20453;-60
2022/02/19 06:59:50;;;;;;;0.10;0.00;;;;;;;;;;4112481;28;20129;-60
2022/02/19 07:01:52;;;;;;;0.10;0.00;;;;;;;;;;4127970;28;20555;-60
2022/02/19 07:03:57;;;;;;;0.00;0.00;;;;;;;;;;4112741;28;20063;-59
2022/02/19 07:06:16;;;;;;;0.32;0.10;;;;;;;;;;4097801;29;20102;-60
2022/02/19 07:08:19;;;;;;;0.57;0.10;;;;;;;;;;4112079;28;20554;-59
2022/02/19 07:10:20;;;;;;;0.30;0.13;;;;;;;;;;4112372;28;20569;-60
2022/02/19 07:12:21;;;;;;;0.13;0.10;;;;;;;;;;4096413;29;20106;-60
2022/02/19 07:14:23;;;;;;;0.10;0.10;;;;;;;;;;4112238;28;20416;-60
2022/02/19 07:16:24;;;;;;;0.20;0.10;;;;;;;;;;4112396;28;20075;-60
2022/02/19 07:18:27;;;;;;;0.10;0.10;;;;;;;;;;4095815;28;20293;-61
2022/02/19 07:20:41;;;;;;;0.00;0.00;;;;;;;;;;4112596;28;20105;-59
2022/02/19 07:22:42;;;;;;;0.20;0.10;;;;;;;;;;4112320;28;20054;-61
2022/02/19 07:24:43;;;;;;;0.10;0.10;;;;;;;;;;4096199;28;20408;-60
2022/02/19 07:26:44;;;;;;;0.10;0.10;;;;;;;;;;4122640;28;20438;-60
2022/02/19 07:28:45;;;;;;;0.00;0.00;;;;;;;;;;4096359;29;20055;-61
2022/02/19 07:30:46;;;;;;;0.10;0.10;;;;;;;;;;4096123;29;20542;-60
2022/02/19 07:32:52;;;;;;;0.00;0.00;;;;;;;;;;4096007;28;20047;-61
2022/02/19 07:35:28;;;;;;;0.20;0.10;;;;;;;;;;4110402;28;20107;-60
2022/02/19 07:37:29;;;;;;;0.10;0.10;;;;;;;;;;4145579;28;20061;-60
2022/02/19 07:39:30;;;;;;;0.28;0.10;;;;;;;;;;4144406;28;20046;-60
2022/02/19 07:41:39;;;;;;;0.20;0.10;;;;;;;;;;4144185;28;20120;-59
2022/02/19 07:43:52;;;;;;;0.28;0.20;;;;;;;;;;4146056;28;20062;-61
2022/02/19 07:46:03;;;;;;;0.05;0.00;;;;;;;;;;4128398;28;20050;-61
2022/02/19 07:48:04;;;;;;;0.52;0.28;;;;;;;;;;4146628;28;20060;-61
2022/02/19 07:58:23;;;;;;;0.10;0.10;;;;;;;;;;4147210;28;20065;-59
2022/02/19 08:00:26;;;;;;;0.10;0.10;;;;;;;;;;4147106;28;20096;-61
2022/02/19 08:02:31;;;;;;;0.22;0.00;;;;;;;;;;4130535;28;20062;-61
2022/02/19 08:04:34;;;;;;;0.17;0.10;;;;;;;;;;4147291;28;20069;-60
2022/02/19 08:06:35;;;;;;;0.20;0.10;;;;;;;;;;4146745;28;20120;-61
2022/02/19 08:08:36;;;;;;;0.10;0.10;;;;;;;;;;4148043;28;20464;-60
2022/02/19 08:10:45;;;;;;;0.10;0.10;;;;;;;;;;4130947;28;20061;-60
2022/02/19 08:12:46;;;;;;;0.43;0.05;;;;;;;;;;4148073;28;20362;-61
2022/02/19 08:14:48;;;;;;;0.10;0.10;;;;;;;;;;4148416;28;20062;-60
2022/02/19 08:16:49;;;;;;;0.40;0.00;;;;;;;;;;4147618;28;20087;-60
2022/02/19 08:18:50;;;;;;;0.10;0.10;;;;;;;;;;4148257;28;20049;-60
2022/02/19 08:20:53;;;;;;;0.25;0.10;;;;;;;;;;4148345;28;20077;-61
2022/02/19 08:22:54;;;;;;;0.30;0.10;;;;;;;;;;4147888;28;20652;-61
2022/02/19 08:24:55;;;;;;;0.05;0.05;;;;;;;;;;4148175;28;20111;-58
2022/02/19 08:26:56;;;;;;;0.32;0.10;;;;;;;;;;4147736;28;20062;-61
2022/02/19 08:28:58;;;;;;;0.65;0.22;;;;;;;;;;4147853;28;20132;-59
2022/02/19 08:30:59;;;;;;;0.00;0.00;;;;;;;;;;4147859;28;20129;-61
2022/02/19 08:33:01;;;;;;;0.10;0.10;;;;;;;;;;4147267;28;20564;-60
2022/02/19 08:35:02;;;;;;;0.10;0.10;;;;;;;;;;4146207;28;20442;-61
2022/02/19 08:37:03;;;;;;;0.05;0.03;;;;;;;;;;4131558;28;20093;-61
2022/02/19 08:39:04;;;;;;;0.10;0.10;;;;;;;;;;4114071;28;20102;-60
2022/02/19 08:41:05;;;;;;;0.45;0.10;;;;;;;;;;4131851;28;20061;-61
2022/02/19 08:43:06;;;;;;;0.00;0.00;;;;;;;;;;4131361;28;20058;-60
2022/02/19 08:45:08;;;;;;;0.05;0.05;;;;;;;;;;4131473;28;20394;-60
2022/02/19 08:47:10;;;;;;;0.15;0.10;;;;;;;;;;4131283;28;20542;-60
2022/02/19 08:49:11;;;;;;;0.75;0.20;;;;;;;;;;4131507;28;20394;-61
2022/02/19 08:51:12;;;;;;;0.20;0.20;;;;;;;;;;4114310;28;20066;-60
2022/02/19 08:53:14;;;;;;;0.10;0.10;;;;;;;;;;4113962;28;20510;-59
2022/02/19 08:55:16;;;;;;;0.10;0.10;;;;;;;;;;4131461;28;20062;-60
2022/02/19 08:57:17;;;;;;;0.20;0.00;;;;;;;;;;4131134;28;20058;-60
2022/02/19 08:59:19;;;;;;;0.30;0.10;;;;;;;;;;4130462;28;20062;-60
2022/02/19 09:01:20;;;;;;;1.38;0.20;;;;;;;;;;4131243;28;20054;-59
2022/02/19 09:03:21;;;;;;;0.10;0.00;;;;;;;;;;4130748;28;20062;-60
2022/02/19 09:05:22;;;;;;;0.10;0.10;;;;;;;;;;4131159;28;20054;-61
2022/02/19 09:07:24;;;;;;;0.10;0.10;;;;;;;;;;4129703;28;20062;-61
2022/02/19 09:09:25;;;;;;;0.65;0.10;;;;;;;;;;4130248;28;20093;-61
2022/02/19 09:11:26;;;;;;;0.88;0.10;;;;;;;;;;4131174;28;20120;-60
2022/02/19 09:13:27;;;;;;;0.30;0.10;;;;;;;;;;4129568;28;20458;-61
2022/02/19 09:15:29;;;;;;;0.05;0.05;;;;;;;;;;4131021;28;20113;-60
2022/02/19 09:17:30;;;;;;;0.00;0.00;;;;;;;;;;4130585;28;20055;-61
2022/02/19 09:19:32;;;;;;;0.05;0.00;;;;;;;;;;4130777;28;20379;-61
2022/02/19 09:21:33;;;;;;;0.10;0.10;;;;;;;;;;4131162;28;20057;-60
2022/02/19 09:23:35;;;;;;;0.38;0.10;;;;;;;;;;4131024;28;20376;-60
2022/02/19 09:25:36;;;;;;;0.50;0.10;;;;;;;;;;4130593;28;20058;-61
2022/02/19 09:27:39;;;;;;;0.35;0.20;;;;;;;;;;4130786;28;20081;-61
2022/02/19 09:29:40;;;;;;;0.47;0.10;;;;;;;;;;4130769;28;20058;-60
2022/02/19 09:31:41;;;;;;;0.03;0.00;;;;;;;;;;4130586;28;20058;-58
2022/02/19 09:33:42;;;;;;;1.55;0.10;;;;;;;;;;4130694;28;20509;-58
2022/02/19 09:35:43;;;;;;;0.10;0.10;;;;;;;;;;4123741;28;20081;-59
2022/02/19 09:37:44;;;;;;;0.20;0.10;;;;;;;;;;4113003;28;20078;-60
2022/02/19 09:39:46;;;;;;;0.00;0.00;;;;;;;;;;4114761;28;20051;-59
2022/02/19 09:41:48;;;;;;;0.30;0.00;;;;;;;;;;4097179;29;20055;-61
2022/02/19 09:43:49;;;;;;;0.30;0.10;;;;;;;;;;4114568;28;20109;-60
2022/02/19 09:45:50;;;;;;;0.10;0.10;;;;;;;;;;4114487;28;20097;-61
2022/02/19 09:47:52;;;;;;;0.55;0.20;;;;;;;;;;4112646;28;20062;-61
2022/02/19 09:49:55;;;;;;;0.30;0.00;;;;;;;;;;4113366;28;20051;-61
2022/02/19 09:51:59;;;;;;;1.38;0.00;;;;;;;;;;4114508;28;20114;-60
2022/02/19 09:54:00;;;;;;;0.63;0.10;;;;;;;;;;4114362;28;20518;-60
2022/02/19 09:56:01;;;;;;;0.10;0.10;;;;;;;;;;4114374;28;20059;-61
2022/02/19 09:58:02;;;;;;;0.30;0.10;;;;;;;;;;4114376;28;20125;-60
2022/02/19 10:00:06;;;;;;;0.10;0.10;;;;;;;;;;4114181;28;20055;-61
2022/02/19 10:02:15;;;;;;;0.10;0.10;;;;;;;;;;4113729;28;20067;-60
2022/02/19 10:04:25;;;;;;;0.10;0.10;;;;;;;;;;4114135;28;20458;-59
2022/02/19 10:06:32;;;;;;;0.10;0.10;;;;;;;;;;4096903;29;20071;-61
2022/02/19 10:08:33;;;;;;;0.10;0.00;;;;;;;;;;4114096;28;20626;-60
2022/02/19 10:10:37;;;;;;;0.13;0.00;;;;;;;;;;4113848;28;20105;-60
2022/02/19 10:12:46;;;;;;;0.00;0.00;;;;;;;;;;4112736;28;20437;-59
2022/02/19 10:14:47;;;;;;;0.10;0.00;;;;;;;;;;4114043;28;20109;-60
2022/02/19 10:17:13;;;;;;;0.20;0.10;;;;;;;;;;4113520;28;20059;-57
2022/02/19 10:19:14;;;;;;;0.10;0.10;;;;;;;;;;4097389;28;20059;-60
2022/02/19 10:21:27;;;;;;;0.03;0.03;;;;;;;;;;4114223;28;20129;-60
2022/02/19 10:23:32;;;;;;;0.32;0.10;;;;;;;;;;4114116;28;20067;-61
2022/02/19 10:25:33;;;;;;;0.10;0.10;;;;;;;;;;4115257;28;20062;-61
2022/02/19 10:27:38;;;;;;;0.73;0.17;;;;;;;;;;4112596;28;20098;-59
2022/02/19 10:29:47;;;;;;;0.00;0.00;;;;;;;;;;4129991;28;20062;-59
2022/02/19 10:31:56;;;;;;;0.10;0.10;;;;;;;;;;4129338;28;20065;-57
2022/02/19 10:34:16;;;;;;;0.22;0.05;;;;;;;;;;4128875;28;20058;-59
2022/02/19 10:36:19;;;;;;;0.10;0.10;;;;;;;;;;4129806;28;20105;-60
2022/02/19 10:38:20;;;;;;;0.52;0.25;;;;;;;;;;4112441;28;20487;-61
2022/02/19 10:40:32;;;;;;;0.10;0.10;;;;;;;;;;4129839;28;20101;-60
2022/02/19 10:42:34;;;;;;;0.32;0.15;;;;;;;;;;4128374;28;20058;-61
2022/02/19 10:44:36;;;;;;;2.17;0.10;;;;;;;;;;4129771;28;20061;-61
2022/02/19 10:46:37;;;;;;;0.15;0.10;;;;;;;;;;4129283;28;20054;-57
2022/02/19 10:48:38;;;;;;;0.20;0.10;;;;;;;;;;4129810;28;20116;-61
2022/02/19 10:50:41;;;;;;;0.00;0.00;;;;;;;;;;4129991;28;20108;-59
2022/02/19 10:52:46;;;;;;;0.10;0.10;;;;;;;;;;4129620;28;20458;-61
2022/02/19 10:54:47;;;;;;;0.17;0.00;;;;;;;;;;4128712;28;20054;-59
2022/02/19 10:56:49;;;;;;;0.10;0.10;;;;;;;;;;4112195;28;20077;-57
2022/02/19 10:59:00;;;;;;;0.20;0.10;;;;;;;;;;4128391;28;20054;-59
2022/02/19 11:01:03;;;;;;;0.40;0.20;;;;;;;;;;4129726;28;20054;-60
2022/02/19 11:03:06;;;;;;;0.17;0.10;;;;;;;;;;4129530;28;20066;-59
2022/02/19 11:05:08;;;;;;;0.10;0.10;;;;;;;;;;4129772;28;20461;-61
2022/02/19 11:07:09;;;;;;;0.75;0.10;;;;;;;;;;4129567;28;20074;-61
2022/02/19 11:09:11;;;;;;;0.10;0.10;;;;;;;;;;4129872;28;20113;-61
2022/02/19 11:11:13;;;;;;;0.08;0.08;;;;;;;;;;4129687;28;20109;-59
2022/02/19 11:13:15;;;;;;;0.08;0.00;;;;;;;;;;4128138;28;20126;-60
2022/02/19 11:15:23;;;;;;;0.47;0.22;;;;;;;;;;4129385;28;20068;-60
2022/02/19 11:17:29;;;;;;;0.43;0.10;;;;;;;;;;4129033;28;20525;-59
2022/02/19 11:19:30;;;;;;;0.10;0.10;;;;;;;;;;4129537;28;20062;-57
2022/02/19 11:21:33;;;;;;;0.13;0.10;;;;;;;;;;4129672;28;20451;-60
2022/02/19 11:23:36;;;;;;;0.30;0.10;;;;;;;;;;4131934;28;20348;-60
2022/02/19 11:25:38;;;;;;;0.10;0.10;;;;;;;;;;4131480;28;20093;-60
2022/02/19 11:27:53;;;;;;;0.20;0.00;;;;;;;;;;4132626;28;20085;-61
2022/02/19 11:29:56;;;;;;;0.20;0.10;;;;;;;;;;4132623;28;20330;-59
2022/02/19 11:31:58;;;;;;;0.25;0.10;;;;;;;;;;4114968;28;20086;-61
2022/02/19 11:34:02;;;;;;;0.10;0.10;;;;;;;;;;4131365;28;20065;-60
2022/02/19 11:36:07;;;;;;;0.15;0.10;;;;;;;;;;4099642;28;20203;-58
2022/02/19 11:38:28;;;;;;;0.47;0.00;;;;;;;;;;4114984;28;20207;-61
2022/02/19 11:40:45;;;;;;;0.32;0.10;;;;;;;;;;4100641;29;20066;-61
2022/02/19 11:42:48;;;;;;;0.03;0.00;;;;;;;;;;4099037;29;20059;-59
2022/02/19 11:44:49;;;;;;;0.10;0.10;;;;;;;;;;4083337;29;20070;-60
2022/02/19 11:46:52;;;;;;;0.10;0.10;;;;;;;;;;4099858;28;20059;-61
2022/02/19 11:48:53;;;;;;;0.10;0.10;;;;;;;;;;4100409;29;20078;-60
2022/02/19 11:51:21;;;;;;;0.00;0.00;;;;;;;;;;4100568;29;20059;-60
2022/02/19 11:53:22;;;;;;;0.22;0.03;;;;;;;;;;4098787;29;20444;-60
2022/02/19 11:55:31;;;;;;;0.10;0.10;;;;;;;;;;4100272;28;20099;-60
2022/02/19 11:57:32;;;;;;;0.30;0.13;;;;;;;;;;4098565;29;20566;-60
2022/02/19 11:59:41;;;;;;;0.20;0.10;;;;;;;;;;4099995;28;20496;-60
2022/02/19 12:01:47;;;;;;;0.00;0.00;;;;;;;;;;4099640;29;20059;-61
2022/02/19 12:04:13;;;;;;;0.10;0.10;;;;;;;;;;4114778;28;20063;-60
2022/02/19 12:06:26;;;;;;;0.20;0.10;;;;;;;;;;4114844;28;20109;-60
2022/02/19 12:08:27;;;;;;;0.10;0.08;;;;;;;;;;4100106;28;20074;-60
2022/02/19 12:10:30;;;;;;;0.00;0.00;;;;;;;;;;4100313;29;20067;-61
2022/02/19 12:13:09;;;;;;;0.10;0.10;;;;;;;;;;4114694;28;20063;-61
2022/02/19 12:15:26;;;;;;;0.35;0.20;;;;;;;;;;4100364;29;20110;-60
2022/02/19 12:17:44;;;;;;;0.25;0.13;;;;;;;;;;4099676;29;20487;-61
2022/02/19 12:19:51;;;;;;;0.20;0.15;;;;;;;;;;4099877;29;20055;-60
2022/02/19 12:21:52;;;;;;;0.10;0.10;;;;;;;;;;4099789;28;20086;-60
2022/02/19 12:24:11;;;;;;;0.08;0.08;;;;;;;;;;4114393;28;20150;-60
2022/02/19 12:26:12;;;;;;;0.85;0.10;;;;;;;;;;4099851;28;20070;-59
2022/02/19 12:28:18;;;;;;;0.57;0.10;;;;;;;;;;4099622;29;20075;-60
2022/02/19 12:30:21;;;;;;;0.30;0.10;;;;;;;;;;4099679;29;20396;-59
2022/02/19 12:32:22;;;;;;;0.05;0.05;;;;;;;;;;4099507;29;20106;-60